Time;durP1;ratioP1;P1;durP2;ratioP2;P2;SDS_P1;SDS_P2;PMS_P1;PMS_P2;Temp;Humidity;BMP_temperature;BMP_pressure;BME280_temperature;BME280_humidity;BME280_pressure;Samples;Min_cycle;Max_cycle;Signal;HPM_P1;HPM_P2
2023/09/14 00:00:14;;;;;;;1.33;1.23;;;;;;;;;;4994542;28;20042;-65
2023/09/14 00:02:39;;;;;;;1.60;1.50;;;;;;;;;;4988131;28;20035;-66
2023/09/14 00:05:06;;;;;;;3.63;1.40;;;;;;;;;;4984332;28;20030;-65
2023/09/14 00:07:32;;;;;;;1.40;1.30;;;;;;;;;;4989367;28;20033;-65
2023/09/14 00:09:58;;;;;;;1.48;1.38;;;;;;;;;;4996456;28;20030;-65
2023/09/14 00:12:23;;;;;;;1.80;1.70;;;;;;;;;;4986707;28;20060;-65
2023/09/14 00:14:50;;;;;;;1.20;1.20;;;;;;;;;;4992759;28;20456;-65
2023/09/14 00:17:15;;;;;;;1.50;1.40;;;;;;;;;;4994811;28;21179;-65
2023/09/14 00:19:40;;;;;;;1.27;1.00;;;;;;;;;;4995872;28;20039;-65
2023/09/14 00:22:06;;;;;;;1.02;1.02;;;;;;;;;;4986626;28;20035;-65
2023/09/14 00:24:31;;;;;;;1.67;1.58;;;;;;;;;;4993583;28;20042;-65
2023/09/14 00:26:57;;;;;;;1.55;1.05;;;;;;;;;;4991144;28;20034;-65
2023/09/14 00:29:22;;;;;;;1.27;1.27;;;;;;;;;;5006386;28;20396;-65
2023/09/14 00:31:47;;;;;;;1.67;1.50;;;;;;;;;;4990186;28;20023;-65
2023/09/14 00:34:13;;;;;;;1.17;1.17;;;;;;;;;;4995103;28;20084;-65
2023/09/14 00:36:38;;;;;;;3.00;1.20;;;;;;;;;;4994671;28;20037;-65
2023/09/14 00:39:03;;;;;;;1.38;1.20;;;;;;;;;;4987517;28;20022;-65
2023/09/14 00:41:29;;;;;;;3.25;1.25;;;;;;;;;;4981111;28;20034;-65
2023/09/14 00:43:54;;;;;;;1.63;1.27;;;;;;;;;;4993718;28;20385;-65
2023/09/14 00:46:20;;;;;;;1.30;1.20;;;;;;;;;;4995751;28;20085;-65
2023/09/14 00:48:47;;;;;;;1.30;1.30;;;;;;;;;;4993705;28;20026;-65
2023/09/14 00:51:12;;;;;;;1.15;1.05;;;;;;;;;;4995621;28;20038;-65
2023/09/14 00:53:38;;;;;;;1.13;1.10;;;;;;;;;;4994598;28;20033;-66
2023/09/14 00:56:06;;;;;;;1.00;1.00;;;;;;;;;;4991339;28;20085;-65
2023/09/14 00:58:31;;;;;;;1.33;1.15;;;;;;;;;;4991354;28;20026;-65
2023/09/14 01:00:57;;;;;;;1.48;1.35;;;;;;;;;;4985045;28;20049;-66
2023/09/14 01:03:23;;;;;;;2.67;1.17;;;;;;;;;;4994465;28;20034;-65
2023/09/14 01:05:49;;;;;;;1.02;1.02;;;;;;;;;;4994605;28;20062;-65
2023/09/14 01:08:15;;;;;;;1.27;1.17;;;;;;;;;;4985891;28;20058;-65
2023/09/14 01:10:40;;;;;;;1.15;1.15;;;;;;;;;;4987151;28;20556;-65
2023/09/14 01:13:12;;;;;;;1.08;1.00;;;;;;;;;;4994995;28;20034;-65
2023/09/14 01:15:52;;;;;;;1.17;1.13;;;;;;;;;;4990315;28;20076;-65
2023/09/14 01:18:24;;;;;;;1.30;1.20;;;;;;;;;;4986097;28;20047;-65
2023/09/14 01:21:27;;;;;;;1.17;1.17;;;;;;;;;;4991063;28;20046;-65
2023/09/14 01:24:01;;;;;;;1.10;1.00;;;;;;;;;;4986932;28;20058;-65
2023/09/14 01:26:29;;;;;;;2.05;1.13;;;;;;;;;;4996412;28;20038;-65
2023/09/14 01:28:54;;;;;;;1.08;1.08;;;;;;;;;;4996678;28;20035;-65
2023/09/14 01:31:20;;;;;;;1.10;1.02;;;;;;;;;;4999781;28;20088;-66
2023/09/14 01:33:48;;;;;;;1.00;1.00;;;;;;;;;;4996275;28;20030;-65
2023/09/14 01:36:44;;;;;;;3.03;1.10;;;;;;;;;;4995788;28;20038;-66
2023/09/14 01:39:11;;;;;;;1.52;1.10;;;;;;;;;;4989025;28;20030;-65
2023/09/14 01:41:37;;;;;;;1.17;1.08;;;;;;;;;;4992932;28;20033;-65
2023/09/14 01:44:04;;;;;;;1.73;1.20;;;;;;;;;;4995772;28;20073;-65
2023/09/14 01:46:32;;;;;;;1.15;1.10;;;;;;;;;;4999073;28;20040;-65
2023/09/14 01:48:57;;;;;;;1.38;1.20;;;;;;;;;;4985883;28;20528;-65
2023/09/14 01:51:23;;;;;;;1.73;0.90;;;;;;;;;;4993993;28;20035;-65
2023/09/14 01:53:48;;;;;;;1.33;0.90;;;;;;;;;;4995820;28;20057;-65
2023/09/14 01:56:14;;;;;;;1.02;1.00;;;;;;;;;;4988099;28;20047;-65
2023/09/14 01:58:39;;;;;;;1.15;0.90;;;;;;;;;;4991575;28;20030;-65
2023/09/14 02:01:05;;;;;;;1.20;1.10;;;;;;;;;;4990475;28;20424;-65
2023/09/14 02:03:30;;;;;;;2.65;1.20;;;;;;;;;;4996651;28;20023;-65
2023/09/14 02:06:02;;;;;;;0.77;0.77;;;;;;;;;;4998396;28;20042;-65
2023/09/14 02:08:30;;;;;;;2.38;1.40;;;;;;;;;;4997402;28;20034;-65
2023/09/14 02:10:56;;;;;;;1.10;1.10;;;;;;;;;;4996018;28;20026;-65
2023/09/14 02:13:21;;;;;;;1.42;1.00;;;;;;;;;;4997403;28;20026;-66
2023/09/14 02:15:47;;;;;;;1.35;1.20;;;;;;;;;;4998004;28;20422;-65
2023/09/14 02:18:12;;;;;;;1.10;1.10;;;;;;;;;;4987752;28;20054;-65
2023/09/14 02:20:38;;;;;;;1.15;1.05;;;;;;;;;;4998393;28;20026;-66
2023/09/14 02:23:04;;;;;;;1.20;1.20;;;;;;;;;;4996408;28;20041;-65
2023/09/14 02:25:30;;;;;;;1.08;1.08;;;;;;;;;;4997675;28;20054;-65
2023/09/14 02:27:55;;;;;;;1.60;1.20;;;;;;;;;;4984770;28;20034;-65
2023/09/14 02:30:20;;;;;;;1.95;1.20;;;;;;;;;;4992479;28;20128;-65
2023/09/14 02:32:46;;;;;;;1.65;1.00;;;;;;;;;;4994449;28;20034;-64
2023/09/14 02:35:11;;;;;;;1.25;1.15;;;;;;;;;;4991721;28;20039;-65
2023/09/14 02:37:37;;;;;;;2.05;1.00;;;;;;;;;;4992672;28;20057;-64
2023/09/14 02:40:06;;;;;;;1.10;1.10;;;;;;;;;;4996060;28;20077;-64
2023/09/14 02:42:32;;;;;;;1.38;1.20;;;;;;;;;;4997075;28;20039;-65
2023/09/14 02:44:57;;;;;;;1.20;1.10;;;;;;;;;;4997632;28;20045;-64
2023/09/14 02:47:22;;;;;;;2.90;1.30;;;;;;;;;;4991783;28;20398;-65
2023/09/14 02:49:48;;;;;;;1.73;1.20;;;;;;;;;;4984646;28;20042;-65
2023/09/14 02:52:13;;;;;;;1.45;1.13;;;;;;;;;;4997289;28;20026;-65
2023/09/14 02:54:39;;;;;;;1.10;1.10;;;;;;;;;;4994395;28;20069;-65
2023/09/14 02:57:04;;;;;;;1.30;1.20;;;;;;;;;;4993068;28;20523;-65
2023/09/14 02:59:29;;;;;;;2.53;1.25;;;;;;;;;;4988836;28;20511;-65
2023/09/14 03:01:55;;;;;;;1.55;1.13;;;;;;;;;;4997738;28;20060;-65
2023/09/14 03:04:21;;;;;;;0.90;0.90;;;;;;;;;;4995820;28;20049;-64
2023/09/14 03:06:46;;;;;;;1.13;1.13;;;;;;;;;;4996240;28;20042;-65
2023/09/14 03:09:11;;;;;;;0.88;0.88;;;;;;;;;;4993129;28;20034;-64
2023/09/14 03:11:37;;;;;;;1.10;1.05;;;;;;;;;;4996778;28;20026;-64
2023/09/14 03:14:02;;;;;;;1.13;1.10;;;;;;;;;;4995070;28;20054;-64
2023/09/14 03:16:28;;;;;;;1.65;1.30;;;;;;;;;;4980396;28;20133;-65
2023/09/14 03:18:53;;;;;;;1.50;1.05;;;;;;;;;;5000642;28;20080;-64
2023/09/14 03:21:23;;;;;;;1.10;1.00;;;;;;;;;;4996048;28;20130;-65
2023/09/14 03:23:49;;;;;;;2.10;1.30;;;;;;;;;;4994939;28;20026;-65
2023/09/14 03:26:14;;;;;;;1.23;1.00;;;;;;;;;;4993760;28;20089;-65
2023/09/14 03:28:40;;;;;;;7.07;1.30;;;;;;;;;;4994760;28;20031;-65
2023/09/14 03:31:05;;;;;;;1.98;1.20;;;;;;;;;;4995731;28;20045;-65
2023/09/14 03:33:31;;;;;;;1.38;1.27;;;;;;;;;;4988633;28;20062;-64
2023/09/14 03:35:56;;;;;;;1.48;1.08;;;;;;;;;;4996935;28;20049;-64
2023/09/14 03:38:22;;;;;;;0.90;0.90;;;;;;;;;;4988664;28;20038;-65
2023/09/14 03:40:47;;;;;;;0.90;0.90;;;;;;;;;;4991210;28;20086;-65
2023/09/14 03:43:12;;;;;;;3.40;1.00;;;;;;;;;;4987293;28;20105;-65
2023/09/14 03:45:38;;;;;;;1.20;1.20;;;;;;;;;;4991381;28;20076;-64
2023/09/14 03:48:04;;;;;;;2.05;1.10;;;;;;;;;;4989923;28;20022;-65
2023/09/14 03:50:30;;;;;;;1.30;1.20;;;;;;;;;;4993859;28;20053;-66
2023/09/14 03:52:56;;;;;;;0.95;0.95;;;;;;;;;;4996441;28;20042;-65
2023/09/14 03:55:21;;;;;;;0.95;0.95;;;;;;;;;;4997277;28;20030;-65
2023/09/14 03:57:47;;;;;;;1.70;1.20;;;;;;;;;;4994260;28;20380;-65
2023/09/14 04:00:16;;;;;;;1.05;0.95;;;;;;;;;;4992822;28;20121;-65
2023/09/14 04:02:43;;;;;;;1.17;1.08;;;;;;;;;;4989005;28;20062;-65
2023/09/14 04:05:15;;;;;;;1.02;1.02;;;;;;;;;;4996327;28;20039;-65
2023/09/14 04:07:41;;;;;;;1.63;1.10;;;;;;;;;;4994971;28;20108;-65
2023/09/14 04:10:10;;;;;;;1.95;1.00;;;;;;;;;;4994908;28;20078;-65
2023/09/14 04:12:40;;;;;;;3.47;1.10;;;;;;;;;;4996073;28;20026;-65
2023/09/14 04:15:06;;;;;;;1.30;1.20;;;;;;;;;;4994123;28;20030;-65
2023/09/14 04:17:31;;;;;;;1.33;1.23;;;;;;;;;;4992473;28;20045;-66
2023/09/14 04:19:57;;;;;;;4.30;1.40;;;;;;;;;;4995043;28;20065;-65
2023/09/14 04:22:22;;;;;;;1.35;1.25;;;;;;;;;;4989241;28;20061;-66
2023/09/14 04:24:49;;;;;;;2.90;1.13;;;;;;;;;;4993952;28;20492;-66
2023/09/14 04:27:15;;;;;;;1.00;1.00;;;;;;;;;;4996297;28;20120;-66
2023/09/14 04:29:41;;;;;;;3.20;1.35;;;;;;;;;;4986222;28;20050;-66
2023/09/14 04:32:06;;;;;;;1.67;1.20;;;;;;;;;;4991448;28;20508;-65
2023/09/14 04:34:32;;;;;;;1.63;1.00;;;;;;;;;;4993056;28;20042;-65
2023/09/14 04:36:57;;;;;;;0.88;0.88;;;;;;;;;;4996014;28;20087;-65
2023/09/14 04:39:23;;;;;;;1.10;1.10;;;;;;;;;;4993635;28;20043;-65
2023/09/14 04:41:49;;;;;;;1.20;1.10;;;;;;;;;;4995258;28;20030;-65
2023/09/14 04:44:14;;;;;;;1.48;1.38;;;;;;;;;;4989272;28;20042;-65
2023/09/14 04:46:40;;;;;;;1.67;1.10;;;;;;;;;;4991474;28;20058;-65
2023/09/14 04:49:05;;;;;;;1.48;1.27;;;;;;;;;;4990495;28;20033;-65
2023/09/14 04:51:30;;;;;;;1.33;1.17;;;;;;;;;;4985601;28;20015;-65
2023/09/14 04:53:56;;;;;;;1.23;1.23;;;;;;;;;;4983869;28;20065;-65
2023/09/14 04:56:21;;;;;;;3.92;1.20;;;;;;;;;;4982991;28;20043;-65
2023/09/14 04:58:47;;;;;;;1.40;1.15;;;;;;;;;;4992970;28;20471;-65
2023/09/14 05:01:12;;;;;;;1.27;1.17;;;;;;;;;;4980200;28;20070;-65
2023/09/14 05:03:39;;;;;;;1.40;1.30;;;;;;;;;;4989303;28;20040;-65
2023/09/14 05:06:05;;;;;;;2.35;1.25;;;;;;;;;;4991972;28;20029;-65
2023/09/14 05:08:30;;;;;;;1.40;1.30;;;;;;;;;;4998910;28;20030;-65
2023/09/14 05:10:56;;;;;;;1.40;1.30;;;;;;;;;;4992744;28;20042;-66
2023/09/14 05:13:22;;;;;;;1.30;1.10;;;;;;;;;;4997790;28;20507;-66
2023/09/14 05:15:48;;;;;;;1.48;1.38;;;;;;;;;;4991924;28;20054;-64
2023/09/14 05:18:14;;;;;;;1.40;1.30;;;;;;;;;;4992230;28;20536;-64
2023/09/14 05:20:49;;;;;;;1.05;1.02;;;;;;;;;;4993370;28;20046;-64
2023/09/14 05:23:14;;;;;;;1.05;1.05;;;;;;;;;;4998099;28;20041;-64
2023/09/14 05:25:40;;;;;;;1.40;1.30;;;;;;;;;;4996314;28;20046;-65
2023/09/14 05:28:07;;;;;;;30.40;2.00;;;;;;;;;;4985113;28;20045;-65
2023/09/14 05:30:32;;;;;;;3.33;1.10;;;;;;;;;;4985600;28;20491;-64
2023/09/14 05:32:58;;;;;;;1.77;1.20;;;;;;;;;;4988476;28;20054;-65
2023/09/14 05:35:24;;;;;;;1.33;1.17;;;;;;;;;;4991121;28;20049;-64
2023/09/14 05:37:50;;;;;;;1.77;1.30;;;;;;;;;;4991718;28;20026;-65
2023/09/14 05:40:16;;;;;;;1.25;1.15;;;;;;;;;;4990610;28;20492;-65
2023/09/14 05:42:41;;;;;;;1.55;1.45;;;;;;;;;;4990731;28;20056;-65
2023/09/14 05:45:09;;;;;;;3.10;1.48;;;;;;;;;;4987189;28;20074;-67
2023/09/14 05:47:36;;;;;;;1.48;1.15;;;;;;;;;;4987934;28;20548;-66
2023/09/14 05:50:02;;;;;;;3.03;1.00;;;;;;;;;;4985155;28;20381;-69
2023/09/14 05:52:27;;;;;;;1.83;1.20;;;;;;;;;;4986422;28;20031;-66
2023/09/14 05:54:53;;;;;;;5.63;1.30;;;;;;;;;;4988864;28;20508;-66
2023/09/14 05:57:18;;;;;;;2.28;1.30;;;;;;;;;;4984971;28;20042;-66
2023/09/14 05:59:44;;;;;;;3.90;1.30;;;;;;;;;;4988744;28;20046;-66
2023/09/14 06:02:09;;;;;;;1.30;1.30;;;;;;;;;;4984926;28;20058;-65
2023/09/14 06:04:35;;;;;;;1.45;1.35;;;;;;;;;;4997369;28;20500;-66
2023/09/14 06:07:00;;;;;;;1.33;1.23;;;;;;;;;;4991495;28;20026;-67
2023/09/14 06:09:26;;;;;;;1.77;1.50;;;;;;;;;;5006044;28;20054;-66
2023/09/14 06:11:55;;;;;;;1.50;1.40;;;;;;;;;;4993802;28;20433;-66
2023/09/14 06:14:21;;;;;;;1.60;1.50;;;;;;;;;;4990198;28;20047;-66
2023/09/14 06:16:46;;;;;;;1.58;1.48;;;;;;;;;;4982254;28;20042;-66
2023/09/14 06:19:12;;;;;;;2.70;1.30;;;;;;;;;;4984372;28;20058;-66
2023/09/14 06:21:37;;;;;;;2.70;1.40;;;;;;;;;;4983500;28;20484;-66
2023/09/14 06:24:03;;;;;;;13.00;1.77;;;;;;;;;;4984862;28;20038;-65
2023/09/14 06:26:31;;;;;;;6.43;1.75;;;;;;;;;;4994776;28;20491;-67
2023/09/14 06:28:57;;;;;;;6.10;1.70;;;;;;;;;;4990822;28;20492;-64
2023/09/14 06:31:23;;;;;;;10.15;1.70;;;;;;;;;;4988906;28;20053;-68
2023/09/14 06:33:51;;;;;;;3.85;1.88;;;;;;;;;;4987090;28;20023;-66
2023/09/14 06:36:18;;;;;;;4.65;1.30;;;;;;;;;;4988360;28;20038;-65
2023/09/14 06:38:47;;;;;;;2.47;1.58;;;;;;;;;;4990232;28;20026;-66
2023/09/14 06:41:14;;;;;;;7.10;1.40;;;;;;;;;;4983899;28;20039;-66
2023/09/14 06:43:42;;;;;;;12.05;1.65;;;;;;;;;;4994071;28;20037;-66
2023/09/14 06:46:09;;;;;;;2.60;1.70;;;;;;;;;;4988145;28;20046;-66
2023/09/14 06:48:35;;;;;;;5.45;1.92;;;;;;;;;;4990789;28;20022;-66
2023/09/14 06:51:00;;;;;;;6.68;1.85;;;;;;;;;;4990315;28;20062;-66
2023/09/14 06:53:26;;;;;;;6.05;1.80;;;;;;;;;;4996207;28;20046;-66
2023/09/14 06:55:52;;;;;;;4.10;1.70;;;;;;;;;;4984109;28;20045;-66
2023/09/14 06:58:17;;;;;;;4.30;1.75;;;;;;;;;;4988779;28;20032;-66
2023/09/14 07:00:42;;;;;;;7.82;1.50;;;;;;;;;;4993353;28;20046;-66
2023/09/14 07:03:08;;;;;;;7.90;1.77;;;;;;;;;;4991132;28;20030;-67
2023/09/14 07:05:35;;;;;;;7.25;1.73;;;;;;;;;;4986980;28;20046;-66
2023/09/14 07:08:01;;;;;;;2.90;1.60;;;;;;;;;;4995802;28;20034;-66
2023/09/14 07:10:27;;;;;;;2.17;1.65;;;;;;;;;;4995194;28;20190;-66
2023/09/14 07:12:52;;;;;;;9.48;1.92;;;;;;;;;;4987239;28;20080;-66
2023/09/14 07:15:18;;;;;;;5.82;1.65;;;;;;;;;;4985205;28;20035;-66
2023/09/14 07:17:43;;;;;;;7.28;2.20;;;;;;;;;;4994795;28;20033;-67
2023/09/14 07:20:09;;;;;;;2.03;1.70;;;;;;;;;;4994163;28;20523;-67
2023/09/14 07:22:35;;;;;;;3.05;1.45;;;;;;;;;;4992282;28;20029;-67
2023/09/14 07:25:02;;;;;;;2.85;1.48;;;;;;;;;;4995511;28;20117;-66
2023/09/14 07:27:27;;;;;;;2.47;1.88;;;;;;;;;;4983335;28;20061;-66
2023/09/14 07:29:52;;;;;;;9.30;2.13;;;;;;;;;;4987562;28;20496;-66
2023/09/14 07:32:19;;;;;;;7.68;2.00;;;;;;;;;;4994884;28;20110;-66
2023/09/14 07:34:44;;;;;;;6.80;2.10;;;;;;;;;;4996451;28;20042;-66
2023/09/14 07:37:10;;;;;;;7.05;1.60;;;;;;;;;;4991402;28;20077;-66
2023/09/14 07:39:35;;;;;;;7.50;2.25;;;;;;;;;;4992047;28;20042;-66
2023/09/14 07:42:01;;;;;;;1.77;1.55;;;;;;;;;;4994375;28;20420;-66
2023/09/14 07:44:26;;;;;;;14.73;2.03;;;;;;;;;;4995933;28;20064;-66
2023/09/14 07:46:51;;;;;;;6.35;2.10;;;;;;;;;;4984832;28;20034;-66
2023/09/14 07:49:17;;;;;;;6.40;2.08;;;;;;;;;;4991557;28;20062;-65
2023/09/14 07:51:42;;;;;;;7.82;1.95;;;;;;;;;;4995453;28;20028;-65
2023/09/14 07:54:08;;;;;;;7.07;2.10;;;;;;;;;;4986990;28;20038;-65
2023/09/14 07:56:33;;;;;;;6.68;2.15;;;;;;;;;;4996356;28;20093;-65
2023/09/14 07:58:58;;;;;;;9.25;1.95;;;;;;;;;;4988059;28;20038;-65
2023/09/14 08:01:24;;;;;;;5.03;2.10;;;;;;;;;;4991591;28;20030;-65
2023/09/14 08:03:50;;;;;;;3.20;2.00;;;;;;;;;;4990320;28;20042;-65
2023/09/14 08:06:18;;;;;;;2.15;1.95;;;;;;;;;;4990985;28;20387;-66
2023/09/14 08:08:44;;;;;;;4.78;2.03;;;;;;;;;;4985276;28;20070;-66
2023/09/14 08:11:10;;;;;;;6.78;2.67;;;;;;;;;;4993378;28;20035;-65
2023/09/14 08:13:36;;;;;;;5.07;2.08;;;;;;;;;;4995592;28;20038;-65
2023/09/14 08:16:05;;;;;;;4.43;2.17;;;;;;;;;;4985161;28;20034;-66
2023/09/14 08:18:31;;;;;;;6.15;2.10;;;;;;;;;;4985171;28;20140;-66
2023/09/14 08:20:56;;;;;;;2.10;2.00;;;;;;;;;;4981948;28;20070;-66
2023/09/14 08:23:22;;;;;;;2.58;2.38;;;;;;;;;;4984381;28;20043;-66
2023/09/14 08:25:48;;;;;;;2.45;2.25;;;;;;;;;;5005642;28;20034;-65
2023/09/14 08:28:15;;;;;;;2.33;2.10;;;;;;;;;;4994310;28;20389;-65
2023/09/14 08:30:42;;;;;;;2.00;1.90;;;;;;;;;;4994942;28;20034;-65
2023/09/14 08:33:07;;;;;;;2.53;2.00;;;;;;;;;;4989714;28;20038;-65
2023/09/14 08:35:34;;;;;;;2.65;2.30;;;;;;;;;;4992754;28;20038;-65
2023/09/14 08:38:02;;;;;;;2.05;1.90;;;;;;;;;;4987593;28;20065;-65
2023/09/14 08:40:29;;;;;;;4.50;2.28;;;;;;;;;;4992087;28;20038;-65
2023/09/14 08:42:55;;;;;;;4.15;2.13;;;;;;;;;;4995189;28;20030;-65
2023/09/14 08:45:28;;;;;;;2.03;1.92;;;;;;;;;;4989020;28;20057;-64
2023/09/14 08:47:55;;;;;;;2.78;2.40;;;;;;;;;;4993830;28;20030;-65
2023/09/14 08:50:27;;;;;;;2.30;2.20;;;;;;;;;;4994043;28;20094;-65
2023/09/14 08:52:52;;;;;;;;;;;;;;;;;;4994683;28;20029;-65
2023/09/14 08:55:20;;;;;;;3.25;1.92;;;;;;;;;;4993086;28;19918;-65
2023/09/14 08:57:46;;;;;;;2.63;2.15;;;;;;;;;;4985584;28;20121;-65
2023/09/14 09:00:17;;;;;;;2.33;2.17;;;;;;;;;;4995002;28;20061;-64
2023/09/14 09:02:53;;;;;;;5.45;2.30;;;;;;;;;;4994989;28;20042;-65
2023/09/14 09:05:20;;;;;;;3.30;2.13;;;;;;;;;;4994991;28;20052;-65
2023/09/14 09:07:50;;;;;;;2.67;2.40;;;;;;;;;;4983660;28;20125;-65
2023/09/14 09:10:22;;;;;;;7.25;2.55;;;;;;;;;;4992435;28;20077;-65
2023/09/14 09:12:50;;;;;;;5.38;2.50;;;;;;;;;;4992825;28;20073;-65
2023/09/14 09:15:16;;;;;;;3.13;2.38;;;;;;;;;;4983503;28;20034;-65
2023/09/14 09:17:42;;;;;;;3.13;2.58;;;;;;;;;;4984503;28;20092;-64
2023/09/14 09:20:24;;;;;;;3.42;2.38;;;;;;;;;;4994694;28;20443;-64
2023/09/14 09:22:51;;;;;;;2.00;1.90;;;;;;;;;;4995815;28;20034;-64
2023/09/14 09:25:21;;;;;;;5.03;2.67;;;;;;;;;;4990868;28;20069;-64
2023/09/14 09:27:46;;;;;;;6.03;3.00;;;;;;;;;;4990743;28;20038;-64
2023/09/14 09:30:13;;;;;;;4.70;3.60;;;;;;;;;;4983254;28;20084;-63
2023/09/14 09:32:42;;;;;;;12.05;4.15;;;;;;;;;;4990534;28;20022;-64
2023/09/14 09:35:24;;;;;;;7.95;3.95;;;;;;;;;;4982799;28;20045;-64
2023/09/14 09:37:50;;;;;;;5.95;4.35;;;;;;;;;;4984458;28;20033;-64
2023/09/14 09:40:20;;;;;;;9.30;4.70;;;;;;;;;;4990349;28;20054;-64
2023/09/14 09:42:46;;;;;;;6.85;5.07;;;;;;;;;;4984893;28;20042;-64
2023/09/14 09:45:15;;;;;;;8.98;4.80;;;;;;;;;;4989810;28;20465;-64
2023/09/14 09:47:42;;;;;;;15.23;5.85;;;;;;;;;;4987224;28;20034;-64
2023/09/14 09:50:12;;;;;;;13.45;6.10;;;;;;;;;;4983414;28;20038;-64
2023/09/14 09:52:40;;;;;;;15.05;6.05;;;;;;;;;;4996549;28;20108;-64
2023/09/14 09:55:07;;;;;;;14.27;7.80;;;;;;;;;;4992852;28;20062;-64
2023/09/14 09:57:37;;;;;;;13.23;7.43;;;;;;;;;;4996182;28;20077;-64
2023/09/14 10:00:12;;;;;;;13.68;6.30;;;;;;;;;;4990507;28;20546;-65
2023/09/14 10:02:37;;;;;;;14.77;6.45;;;;;;;;;;4988107;28;20031;-65
2023/09/14 10:05:03;;;;;;;10.57;6.05;;;;;;;;;;4994862;28;20478;-65
2023/09/14 10:07:29;;;;;;;12.10;6.45;;;;;;;;;;4991201;28;20053;-64
2023/09/14 10:09:54;;;;;;;11.27;6.13;;;;;;;;;;4994541;28;20042;-66
2023/09/14 10:12:24;;;;;;;13.25;6.13;;;;;;;;;;4992229;28;20030;-66
2023/09/14 10:14:52;;;;;;;15.43;5.97;;;;;;;;;;4995555;28;20042;-65
2023/09/14 10:17:22;;;;;;;10.77;4.95;;;;;;;;;;4981814;28;20034;-65
2023/09/14 10:19:48;;;;;;;8.00;4.65;;;;;;;;;;4987731;28;20042;-66
2023/09/14 10:22:14;;;;;;;9.65;4.90;;;;;;;;;;4988201;28;20370;-66
2023/09/14 10:24:41;;;;;;;11.02;5.05;;;;;;;;;;4994716;28;20118;-66
2023/09/14 10:27:08;;;;;;;7.57;4.53;;;;;;;;;;4990357;28;20054;-65
2023/09/14 10:29:37;;;;;;;6.43;3.83;;;;;;;;;;4989972;28;20138;-65
2023/09/14 10:32:05;;;;;;;7.70;4.82;;;;;;;;;;4997630;28;20045;-65
2023/09/14 10:34:33;;;;;;;9.75;4.40;;;;;;;;;;4996928;28;20042;-66
2023/09/14 10:36:59;;;;;;;11.88;4.38;;;;;;;;;;4992358;28;20039;-67
2023/09/14 10:39:25;;;;;;;8.35;4.55;;;;;;;;;;4992095;28;20141;-66
2023/09/14 10:41:51;;;;;;;6.75;3.92;;;;;;;;;;4996665;28;20388;-66
2023/09/14 10:44:17;;;;;;;7.30;4.80;;;;;;;;;;4993505;28;20093;-66
2023/09/14 10:46:43;;;;;;;8.80;4.40;;;;;;;;;;4988424;28;20044;-66
2023/09/14 10:49:09;;;;;;;7.75;4.78;;;;;;;;;;4996163;28;20036;-66
2023/09/14 10:51:35;;;;;;;6.07;4.78;;;;;;;;;;4996684;28;20023;-66
2023/09/14 10:54:01;;;;;;;9.52;4.88;;;;;;;;;;4995649;28;20037;-66
2023/09/14 10:56:34;;;;;;;5.60;4.35;;;;;;;;;;4989003;28;20026;-66
2023/09/14 10:59:08;;;;;;;5.43;4.00;;;;;;;;;;4989293;28;20061;-65
2023/09/14 11:01:45;;;;;;;5.72;4.00;;;;;;;;;;4982920;28;20030;-66
2023/09/14 11:04:13;;;;;;;5.43;3.92;;;;;;;;;;5022487;28;20113;-66
2023/09/14 11:06:50;;;;;;;5.10;3.95;;;;;;;;;;4994873;28;20057;-66
2023/09/14 11:09:17;;;;;;;11.57;3.97;;;;;;;;;;4989461;28;20113;-66
2023/09/14 11:11:48;;;;;;;4.88;4.03;;;;;;;;;;4991500;28;20035;-66
2023/09/14 11:14:14;;;;;;;4.53;3.92;;;;;;;;;;4987646;28;20069;-66
2023/09/14 11:16:59;;;;;;;9.68;4.10;;;;;;;;;;4986496;28;20034;-66
2023/09/14 11:19:31;;;;;;;4.88;3.90;;;;;;;;;;4993645;28;20081;-66
2023/09/14 11:22:17;;;;;;;4.18;3.78;;;;;;;;;;4995762;28;20038;-66
2023/09/14 11:24:43;;;;;;;4.30;3.40;;;;;;;;;;4992755;28;20046;-66
2023/09/14 11:27:19;;;;;;;5.40;3.88;;;;;;;;;;5008337;28;20026;-66
2023/09/14 11:29:45;;;;;;;3.90;3.50;;;;;;;;;;4986918;28;20030;-66
2023/09/14 11:32:17;;;;;;;3.67;3.38;;;;;;;;;;4994336;28;20041;-66
2023/09/14 11:34:44;;;;;;;5.53;3.45;;;;;;;;;;4985769;28;20050;-66
2023/09/14 11:37:12;;;;;;;7.32;4.10;;;;;;;;;;4979871;28;20061;-66
2023/09/14 11:39:40;;;;;;;5.90;3.42;;;;;;;;;;4989156;28;20049;-66
2023/09/14 11:42:06;;;;;;;3.92;3.50;;;;;;;;;;4992746;28;20022;-66
2023/09/14 11:44:31;;;;;;;4.68;3.55;;;;;;;;;;4992003;28;20050;-66
2023/09/14 11:47:01;;;;;;;6.18;3.70;;;;;;;;;;4990898;28;20030;-66
2023/09/14 11:49:30;;;;;;;4.85;3.70;;;;;;;;;;4995379;28;20062;-66
2023/09/14 11:51:56;;;;;;;8.82;3.40;;;;;;;;;;4996284;28;20037;-66
2023/09/14 11:54:22;;;;;;;5.07;3.40;;;;;;;;;;4996519;28;20046;-66
2023/09/14 11:56:49;;;;;;;3.78;3.45;;;;;;;;;;4994902;28;20080;-66
2023/09/14 11:59:34;;;;;;;3.40;3.20;;;;;;;;;;4991943;28;20027;-66
2023/09/14 12:02:03;;;;;;;4.75;3.17;;;;;;;;;;4990954;28;20049;-66
2023/09/14 12:04:29;;;;;;;4.28;3.50;;;;;;;;;;4993497;28;20049;-66
2023/09/14 12:06:55;;;;;;;3.50;3.20;;;;;;;;;;4994734;28;20022;-66
2023/09/14 12:09:41;;;;;;;3.35;3.13;;;;;;;;;;4988595;28;20034;-66
2023/09/14 12:12:13;;;;;;;8.60;3.75;;;;;;;;;;4991271;28;20029;-67
2023/09/14 12:14:40;;;;;;;4.65;3.50;;;;;;;;;;4985714;28;20094;-68
2023/09/14 12:17:26;;;;;;;4.57;3.72;;;;;;;;;;4989140;28;20579;-67
2023/09/14 12:19:57;;;;;;;3.58;3.28;;;;;;;;;;4991143;28;20509;-66
2023/09/14 12:22:31;;;;;;;3.50;3.20;;;;;;;;;;4995315;28;20088;-66
2023/09/14 12:24:57;;;;;;;4.63;3.15;;;;;;;;;;4981992;28;20039;-66
2023/09/14 12:27:23;;;;;;;3.83;3.38;;;;;;;;;;4983318;28;20129;-67
2023/09/14 12:29:49;;;;;;;3.25;2.60;;;;;;;;;;4986300;28;20062;-66
2023/09/14 12:32:15;;;;;;;3.50;3.20;;;;;;;;;;4993522;28;20019;-66
2023/09/14 12:34:41;;;;;;;3.97;3.17;;;;;;;;;;4992060;28;20694;-66
2023/09/14 12:37:07;;;;;;;2.97;2.78;;;;;;;;;;4989066;28;20026;-66
2023/09/14 12:39:33;;;;;;;2.92;2.72;;;;;;;;;;4987424;28;20452;-66
2023/09/14 12:42:03;;;;;;;6.18;3.17;;;;;;;;;;4990717;28;20023;-66
2023/09/14 12:44:29;;;;;;;2.95;2.75;;;;;;;;;;4978713;28;20813;-65
2023/09/14 12:46:55;;;;;;;3.00;2.80;;;;;;;;;;4988033;28;20481;-66
2023/09/14 12:49:20;;;;;;;3.03;2.75;;;;;;;;;;4988187;28;20051;-66
2023/09/14 12:51:51;;;;;;;2.60;2.50;;;;;;;;;;4994276;28;20022;-66
2023/09/14 12:54:23;;;;;;;2.33;2.22;;;;;;;;;;4984878;28;20030;-66
2023/09/14 12:56:49;;;;;;;3.05;2.60;;;;;;;;;;4995016;28;20421;-62
2023/09/14 12:59:15;;;;;;;2.60;2.50;;;;;;;;;;4988788;28;20027;-67
2023/09/14 13:01:40;;;;;;;2.70;2.50;;;;;;;;;;4986593;28;20034;-66
2023/09/14 13:04:09;;;;;;;3.33;2.67;;;;;;;;;;4994388;28;20034;-65
2023/09/14 13:06:35;;;;;;;8.13;2.33;;;;;;;;;;4991391;28;20050;-66
2023/09/14 13:09:07;;;;;;;2.30;2.20;;;;;;;;;;4995691;28;20037;-66
2023/09/14 13:11:34;;;;;;;2.92;2.50;;;;;;;;;;4986581;28;20176;-66
2023/09/14 13:14:00;;;;;;;2.72;2.60;;;;;;;;;;4988217;28;20109;-65
2023/09/14 13:16:27;;;;;;;2.30;2.20;;;;;;;;;;4988712;28;20081;-66
2023/09/14 13:18:53;;;;;;;2.70;2.50;;;;;;;;;;4989288;28;20046;-66
2023/09/14 13:21:19;;;;;;;2.33;2.22;;;;;;;;;;4990277;28;20369;-65
2023/09/14 13:23:45;;;;;;;2.30;2.20;;;;;;;;;;4996176;28;20036;-66
2023/09/14 13:26:10;;;;;;;2.33;2.22;;;;;;;;;;4987218;28;20038;-66
2023/09/14 13:28:36;;;;;;;4.22;2.60;;;;;;;;;;4987055;28;20030;-66
2023/09/14 13:31:03;;;;;;;2.42;2.33;;;;;;;;;;4992416;28;20042;-66
2023/09/14 13:33:28;;;;;;;2.55;2.30;;;;;;;;;;4998595;28;20038;-65
2023/09/14 13:35:56;;;;;;;2.60;2.40;;;;;;;;;;4999394;28;20038;-66
2023/09/14 13:38:21;;;;;;;2.60;2.40;;;;;;;;;;4993366;28;20477;-66
2023/09/14 13:40:47;;;;;;;3.38;2.28;;;;;;;;;;4989881;28;20121;-66
2023/09/14 13:43:13;;;;;;;2.40;2.20;;;;;;;;;;4996213;28;20034;-66
2023/09/14 13:45:38;;;;;;;2.35;2.25;;;;;;;;;;4989739;28;20093;-66
2023/09/14 13:48:04;;;;;;;2.55;2.35;;;;;;;;;;4994708;28;20023;-66
2023/09/14 13:50:30;;;;;;;2.38;2.28;;;;;;;;;;4995041;28;20065;-66
2023/09/14 13:52:56;;;;;;;2.40;2.30;;;;;;;;;;4977535;28;20030;-65
2023/09/14 13:55:21;;;;;;;2.35;2.25;;;;;;;;;;4998680;28;20034;-66
2023/09/14 13:57:47;;;;;;;2.30;2.20;;;;;;;;;;4994964;28;21401;-65
2023/09/14 14:00:14;;;;;;;2.45;2.30;;;;;;;;;;4998615;28;20046;-66
2023/09/14 14:02:46;;;;;;;2.25;2.15;;;;;;;;;;4993284;28;20033;-65
2023/09/14 14:05:11;;;;;;;3.50;2.30;;;;;;;;;;4993264;28;20039;-66
2023/09/14 14:07:37;;;;;;;2.33;2.22;;;;;;;;;;4984330;28;20042;-66
2023/09/14 14:10:05;;;;;;;2.67;2.22;;;;;;;;;;4991464;28;20081;-66
2023/09/14 14:12:33;;;;;;;2.42;2.33;;;;;;;;;;4987734;28;20022;-65
2023/09/14 14:14:58;;;;;;;2.28;2.08;;;;;;;;;;4995765;28;20038;-66
2023/09/14 14:17:24;;;;;;;2.40;2.30;;;;;;;;;;4990494;28;20539;-65
2023/09/14 14:19:49;;;;;;;2.30;2.10;;;;;;;;;;4995013;28;20050;-65
2023/09/14 14:22:15;;;;;;;2.40;2.20;;;;;;;;;;4984338;28;20077;-66
2023/09/14 14:24:40;;;;;;;2.10;2.00;;;;;;;;;;4998136;28;20035;-66
2023/09/14 14:27:06;;;;;;;2.40;2.28;;;;;;;;;;4994036;28;20110;-66
2023/09/14 14:29:32;;;;;;;2.63;2.42;;;;;;;;;;4983901;28;20035;-65
2023/09/14 14:31:57;;;;;;;2.28;2.17;;;;;;;;;;4989875;28;20038;-67
2023/09/14 14:34:22;;;;;;;2.58;2.38;;;;;;;;;;4994577;28;20041;-66
2023/09/14 14:36:48;;;;;;;2.17;2.08;;;;;;;;;;4997187;28;20037;-66
2023/09/14 14:39:15;;;;;;;5.90;2.47;;;;;;;;;;4993557;28;20034;-65
2023/09/14 14:41:41;;;;;;;6.05;2.30;;;;;;;;;;4996357;28;20037;-66